Time;durP1;ratioP1;P1;durP2;ratioP2;P2;SDS_P1;SDS_P2;PMS_P1;PMS_P2;Temp;Humidity;BMP_temperature;BMP_pressure;BME280_temperature;BME280_humidity;BME280_pressure;Samples;Min_cycle;Max_cycle;Signal;HPM_P1;HPM_P2
2021/10/12 00:01:21;;;;;;;8.23;1.30;;;6.40;99.90;;;;;;5013320;28;20065;-50
2021/10/12 00:03:47;;;;;;;5.40;1.20;;;6.40;99.90;;;;;;5013298;28;20392;-47
2021/10/12 00:06:12;;;;;;;4.50;1.15;;;6.50;99.90;;;;;;5013324;28;20029;-49
2021/10/12 00:08:39;;;;;;;4.50;1.13;;;6.40;99.90;;;;;;5013259;28;20030;-50
2021/10/12 00:11:04;;;;;;;7.70;1.20;;;6.40;99.90;;;;;;5013302;28;20022;-53
2021/10/12 00:13:30;;;;;;;10.90;1.48;;;6.40;99.90;;;;;;5012190;28;20423;-51
2021/10/12 00:15:55;;;;;;;3.35;1.00;;;6.40;99.90;;;;;;5012963;28;20034;-50
2021/10/12 00:18:21;;;;;;;5.38;0.98;;;6.40;99.90;;;;;;5013066;28;20037;-49
2021/10/12 00:20:47;;;;;;;3.22;1.02;;;6.40;99.90;;;;;;5013171;28;20474;-52
2021/10/12 00:23:12;;;;;;;8.85;1.50;;;6.40;99.90;;;;;;5013200;28;20453;-56
2021/10/12 00:25:38;;;;;;;5.53;1.10;;;6.40;99.90;;;;;;5013111;28;20061;-52
2021/10/12 00:28:03;;;;;;;4.22;1.20;;;6.40;99.90;;;;;;5013044;28;20034;-51
2021/10/12 00:30:29;;;;;;;5.43;1.00;;;6.40;99.90;;;;;;5011803;28;20034;-51
2021/10/12 00:32:54;;;;;;;3.95;1.27;;;6.40;99.90;;;;;;5012952;28;20112;-47
2021/10/12 00:35:20;;;;;;;4.82;1.17;;;6.30;99.90;;;;;;5012906;28;20046;-51
2021/10/12 00:37:45;;;;;;;8.60;1.42;;;6.30;99.90;;;;;;5012906;28;20473;-49
2021/10/12 00:40:11;;;;;;;3.97;0.95;;;6.30;99.90;;;;;;5012981;28;20097;-49
2021/10/12 00:42:37;;;;;;;9.05;1.33;;;6.40;99.90;;;;;;5012923;28;20033;-48
2021/10/12 00:45:05;;;;;;;6.80;1.40;;;6.30;99.90;;;;;;5011619;28;20026;-50
2021/10/12 00:47:30;;;;;;;2.95;0.93;;;6.30;99.90;;;;;;5012896;28;20022;-50
2021/10/12 00:49:56;;;;;;;4.47;1.08;;;6.30;99.90;;;;;;5012870;28;20026;-48
2021/10/12 00:52:21;;;;;;;9.68;1.10;;;6.30;99.90;;;;;;5013022;28;20500;-51
2021/10/12 00:54:47;;;;;;;4.60;0.88;;;6.30;99.90;;;;;;5012887;28;20101;-51
2021/10/12 00:57:13;;;;;;;3.72;1.17;;;6.20;99.90;;;;;;5012831;28;20083;-51
2021/10/12 00:59:40;;;;;;;3.42;0.90;;;6.20;99.90;;;;;;4993907;28;20026;-55
2021/10/12 01:02:07;;;;;;;4.88;1.17;;;6.20;99.90;;;;;;5012724;28;20053;-48
2021/10/12 01:04:33;;;;;;;6.63;1.50;;;6.20;99.90;;;;;;5012842;28;20026;-50
2021/10/12 01:06:59;;;;;;;3.33;0.95;;;6.20;99.90;;;;;;5015033;28;20048;-52
2021/10/12 01:09:24;;;;;;;9.40;1.13;;;6.20;99.90;;;;;;5016534;28;20393;-49
2021/10/12 01:11:50;;;;;;;6.03;1.60;;;6.30;99.90;;;;;;4998804;28;20092;-52
2021/10/12 01:14:15;;;;;;;11.98;1.30;;;6.30;99.90;;;;;;5015130;28;20025;-47
2021/10/12 01:16:41;;;;;;;9.80;2.03;;;6.30;99.90;;;;;;4998752;28;20038;-53
2021/10/12 01:19:08;;;;;;;6.65;1.40;;;6.30;99.90;;;;;;5016238;28;20034;-51
2021/10/12 01:21:42;;;;;;;7.90;1.27;;;6.40;99.90;;;;;;5016223;28;20041;-55
2021/10/12 01:24:08;;;;;;;5.35;1.23;;;6.40;99.90;;;;;;5016204;28;20093;-48
2021/10/12 01:26:35;;;;;;;3.50;1.25;;;6.40;99.90;;;;;;5016187;28;20028;-53
2021/10/12 01:29:04;;;;;;;4.10;1.48;;;6.40;99.90;;;;;;5014709;28;20036;-54
2021/10/12 01:31:30;;;;;;;6.88;1.45;;;6.40;99.90;;;;;;5016106;28;20030;-52
2021/10/12 01:33:56;;;;;;;2.97;1.00;;;6.30;99.90;;;;;;5016047;28;20080;-51
2021/10/12 01:36:22;;;;;;;7.10;1.27;;;6.30;99.90;;;;;;5016020;28;20033;-49
2021/10/12 01:38:48;;;;;;;6.85;1.30;;;6.30;99.90;;;;;;5015840;28;20042;-50
2021/10/12 01:41:15;;;;;;;4.45;1.40;;;6.30;99.90;;;;;;5015907;28;20495;-53
2021/10/12 01:43:41;;;;;;;5.57;1.55;;;6.30;99.90;;;;;;5014452;28;20021;-49
2021/10/12 01:46:07;;;;;;;7.55;1.63;;;6.20;99.90;;;;;;5015748;28;20097;-55
2021/10/12 01:48:33;;;;;;;8.25;2.17;;;6.30;99.90;;;;;;5015735;28;20125;-49
2021/10/12 01:50:59;;;;;;;9.70;1.35;;;6.30;99.90;;;;;;5016006;28;20065;-53
2021/10/12 01:53:25;;;;;;;6.90;1.73;;;6.30;99.90;;;;;;5015717;28;20034;-51
2021/10/12 01:55:50;;;;;;;6.47;1.42;;;6.20;99.90;;;;;;5015666;28;20041;-53
2021/10/12 01:58:16;;;;;;;5.78;1.40;;;6.20;99.90;;;;;;5014071;28;20034;-51
2021/10/12 02:00:41;;;;;;;9.38;1.65;;;6.30;99.90;;;;;;5015572;28;20026;-48
2021/10/12 02:03:07;;;;;;;9.18;1.67;;;6.20;99.90;;;;;;5015508;28;20022;-53
2021/10/12 02:05:32;;;;;;;10.52;1.80;;;6.20;99.90;;;;;;5015509;28;20022;-49
2021/10/12 02:07:58;;;;;;;6.20;1.30;;;6.20;99.90;;;;;;5015356;28;20065;-51
2021/10/12 02:10:23;;;;;;;9.15;1.55;;;6.20;99.90;;;;;;5015375;28;20030;-49
2021/10/12 02:12:50;;;;;;;6.43;1.27;;;6.20;99.90;;;;;;5015470;28;20040;-52
2021/10/12 02:15:15;;;;;;;6.57;1.40;;;6.20;99.90;;;;;;5013940;28;20084;-55
2021/10/12 02:17:41;;;;;;;6.07;1.55;;;6.20;99.90;;;;;;5014416;28;20033;-50
2021/10/12 02:20:08;;;;;;;7.55;1.67;;;6.20;99.90;;;;;;5015187;28;20033;-51
2021/10/12 02:22:34;;;;;;;2.20;1.50;;;6.10;99.90;;;;;;5015219;28;20026;-54
2021/10/12 02:24:59;;;;;;;5.78;1.77;;;6.10;99.90;;;;;;5015066;28;20045;-50
2021/10/12 02:27:25;;;;;;;5.47;1.27;;;6.10;99.90;;;;;;5014985;28;20037;-53
2021/10/12 02:29:51;;;;;;;7.80;1.50;;;6.10;99.90;;;;;;5013795;28;20386;-52
2021/10/12 02:32:17;;;;;;;8.05;1.60;;;6.00;99.90;;;;;;5014938;28;20097;-50
2021/10/12 02:34:43;;;;;;;6.78;1.50;;;6.00;99.90;;;;;;4997208;28;20046;-50
2021/10/12 02:37:08;;;;;;;6.07;1.52;;;5.90;99.90;;;;;;5014825;28;20026;-48
2021/10/12 02:39:34;;;;;;;9.40;1.10;;;5.90;99.90;;;;;;5014824;28;20378;-51
2021/10/12 02:42:00;;;;;;;5.97;1.40;;;5.80;99.90;;;;;;5014700;28;20026;-51
2021/10/12 02:44:25;;;;;;;6.80;1.60;;;5.80;99.90;;;;;;5013758;28;20354;-52
2021/10/12 02:46:51;;;;;;;6.13;1.20;;;5.70;99.90;;;;;;5014796;28;20026;-48
2021/10/12 02:49:17;;;;;;;4.05;1.27;;;5.70;99.90;;;;;;5014651;28;20037;-46
2021/10/12 02:51:42;;;;;;;4.00;1.20;;;5.60;99.90;;;;;;5014687;28;20396;-52
2021/10/12 02:54:08;;;;;;;11.68;1.27;;;5.60;99.90;;;;;;5014494;28;20037;-49
2021/10/12 02:56:34;;;;;;;6.95;1.25;;;5.60;99.90;;;;;;5014470;28;20080;-54
2021/10/12 02:58:59;;;;;;;6.05;1.60;;;5.60;99.90;;;;;;5013067;28;20025;-48
2021/10/12 03:01:25;;;;;;;5.88;1.35;;;5.50;99.90;;;;;;5014418;28;20030;-50
2021/10/12 03:03:50;;;;;;;8.45;1.70;;;5.50;99.90;;;;;;5014365;28;20022;-50
2021/10/12 03:06:16;;;;;;;4.18;1.08;;;5.40;99.90;;;;;;5014274;28;20026;-50
2021/10/12 03:08:41;;;;;;;4.43;1.67;;;5.40;99.90;;;;;;5014290;28;20037;-50
2021/10/12 03:11:07;;;;;;;5.78;1.20;;;5.40;99.90;;;;;;5014141;28;20030;-55
2021/10/12 03:13:32;;;;;;;4.05;1.10;;;5.40;99.90;;;;;;5012829;28;20049;-55
2021/10/12 03:15:58;;;;;;;2.78;1.10;;;5.40;99.90;;;;;;5014125;28;20307;-50
2021/10/12 03:18:23;;;;;;;1.90;1.20;;;5.30;99.90;;;;;;5013997;28;20073;-53
2021/10/12 03:20:49;;;;;;;4.65;1.30;;;5.40;99.90;;;;;;5014089;28;20041;-54
2021/10/12 03:23:15;;;;;;;6.53;1.13;;;5.30;99.90;;;;;;5013974;28;20033;-53
2021/10/12 03:25:40;;;;;;;5.30;1.08;;;5.40;99.90;;;;;;5014040;28;20025;-50
2021/10/12 03:28:06;;;;;;;9.20;1.45;;;5.40;99.90;;;;;;5013412;28;20029;-50
2021/10/12 03:30:31;;;;;;;5.93;1.48;;;5.30;99.90;;;;;;5013313;28;20362;-54
2021/10/12 03:32:57;;;;;;;4.57;1.35;;;5.30;99.90;;;;;;5013937;28;20493;-49
2021/10/12 03:35:29;;;;;;;7.10;1.58;;;5.30;99.90;;;;;;5013649;28;20097;-51
2021/10/12 03:37:56;;;;;;;6.30;1.50;;;5.30;99.90;;;;;;5013694;28;20461;-53
2021/10/12 03:40:22;;;;;;;3.20;1.17;;;5.30;99.90;;;;;;5013550;28;20050;-51
2021/10/12 03:42:48;;;;;;;6.60;1.35;;;5.30;99.90;;;;;;5013634;28;20025;-50
2021/10/12 03:45:13;;;;;;;2.70;1.15;;;5.30;99.90;;;;;;5012343;28;20054;-50
2021/10/12 03:47:39;;;;;;;3.35;1.80;;;5.40;99.90;;;;;;5013665;28;20065;-47
2021/10/12 03:50:05;;;;;;;7.70;1.98;;;5.40;99.90;;;;;;5013488;28;20026;-49
2021/10/12 03:52:31;;;;;;;4.32;2.00;;;5.40;99.90;;;;;;5013570;28;20022;-52
2021/10/12 03:54:56;;;;;;;4.38;1.70;;;5.50;99.90;;;;;;5013483;28;20028;-55
2021/10/12 03:57:22;;;;;;;6.03;1.83;;;5.50;99.90;;;;;;5013310;28;20049;-49
2021/10/12 03:59:47;;;;;;;9.15;1.95;;;5.50;99.90;;;;;;5012105;28;20140;-50
2021/10/12 04:02:13;;;;;;;7.65;1.50;;;5.60;99.90;;;;;;5013331;28;20164;-48
2021/10/12 04:04:38;;;;;;;3.97;1.52;;;5.70;99.90;;;;;;5013389;28;20026;-50
2021/10/12 04:07:03;;;;;;;6.68;1.65;;;5.70;99.90;;;;;;5013292;28;20504;-54
2021/10/12 04:09:30;;;;;;;3.55;1.00;;;5.70;99.90;;;;;;5013281;28;20034;-50
2021/10/12 04:11:57;;;;;;;6.55;1.98;;;5.80;99.90;;;;;;5013193;28;20017;-51
2021/10/12 04:14:22;;;;;;;8.27;1.83;;;5.70;99.90;;;;;;5011839;28;20041;-51
2021/10/12 04:16:48;;;;;;;2.22;1.30;;;5.70;99.90;;;;;;5013259;28;20037;-49
2021/10/12 04:19:13;;;;;;;7.30;1.48;;;5.70;99.90;;;;;;5013092;28;20462;-52
2021/10/12 04:21:39;;;;;;;7.65;1.40;;;5.70;99.90;;;;;;5013437;28;20477;-47
2021/10/12 04:24:04;;;;;;;8.38;1.90;;;5.70;99.90;;;;;;5013081;28;20061;-52
2021/10/12 04:26:30;;;;;;;5.60;1.95;;;5.70;99.90;;;;;;5013012;28;20048;-49
2021/10/12 04:28:55;;;;;;;10.25;2.10;;;5.70;99.90;;;;;;5011960;28;20461;-49
2021/10/12 04:31:21;;;;;;;6.68;2.30;;;5.80;99.90;;;;;;5013022;28;20030;-49
2021/10/12 04:33:47;;;;;;;7.55;1.90;;;5.90;99.90;;;;;;5013048;28;20022;-49
2021/10/12 04:36:12;;;;;;;6.78;2.00;;;5.90;99.90;;;;;;5012869;28;20535;-51
2021/10/12 04:38:38;;;;;;;3.80;2.42;;;5.90;99.90;;;;;;5012905;28;20110;-50
2021/10/12 04:41:03;;;;;;;8.02;2.55;;;6.00;99.90;;;;;;5013794;28;20068;-50
2021/10/12 04:43:29;;;;;;;6.53;2.88;;;6.10;99.90;;;;;;5015706;28;20580;-49
2021/10/12 04:45:55;;;;;;;8.93;2.50;;;6.20;99.90;;;;;;5016943;28;20025;-52
2021/10/12 04:48:20;;;;;;;7.97;2.40;;;6.30;99.90;;;;;;5016902;28;20072;-55
2021/10/12 04:50:46;;;;;;;7.63;2.45;;;6.30;99.90;;;;;;5016890;28;20033;-53
2021/10/12 04:53:12;;;;;;;6.90;2.85;;;6.50;99.90;;;;;;5016813;28;20026;-52
2021/10/12 04:55:40;;;;;;;12.05;2.63;;;6.50;99.90;;;;;;5016782;28;20026;-49
2021/10/12 04:58:07;;;;;;;5.90;2.20;;;6.60;99.90;;;;;;5015878;28;20468;-51
2021/10/12 05:00:34;;;;;;;5.75;2.08;;;6.70;99.90;;;;;;4999077;28;20388;-50
2021/10/12 05:02:59;;;;;;;7.55;2.17;;;6.80;99.90;;;;;;5016746;28;20018;-51
2021/10/12 05:05:25;;;;;;;11.45;2.95;;;6.80;99.90;;;;;;5016532;28;20129;-47
2021/10/12 05:07:50;;;;;;;8.35;2.42;;;6.90;99.90;;;;;;5016600;28;20036;-52
2021/10/12 05:10:16;;;;;;;8.77;2.63;;;6.90;99.90;;;;;;5016338;28;20424;-51
2021/10/12 05:12:41;;;;;;;7.03;2.08;;;7.00;99.90;;;;;;5016487;28;20593;-53
2021/10/12 05:15:07;;;;;;;7.60;2.28;;;7.10;99.90;;;;;;5015123;28;20061;-50
2021/10/12 05:17:36;;;;;;;6.05;2.03;;;7.10;99.90;;;;;;5016350;28;20022;-50
2021/10/12 05:20:03;;;;;;;8.27;2.13;;;7.20;99.90;;;;;;5016306;28;20028;-51
2021/10/12 05:22:28;;;;;;;5.18;2.70;;;7.30;99.90;;;;;;5016309;28;20021;-54
2021/10/12 05:24:54;;;;;;;3.38;2.08;;;7.30;99.90;;;;;;5016153;28;20097;-53
2021/10/12 05:27:19;;;;;;;4.55;2.17;;;7.40;99.90;;;;;;5016179;28;20068;-55
2021/10/12 05:29:45;;;;;;;7.93;2.50;;;7.40;99.90;;;;;;5014979;28;20096;-51
2021/10/12 05:32:10;;;;;;;5.22;2.15;;;7.50;99.90;;;;;;5016066;28;20033;-54
2021/10/12 05:34:36;;;;;;;5.60;2.10;;;7.50;99.90;;;;;;5015916;28;20076;-50
2021/10/12 05:37:02;;;;;;;4.07;1.98;;;7.60;99.90;;;;;;5016005;28;20389;-51
2021/10/12 05:39:28;;;;;;;4.22;2.10;;;7.60;99.90;;;;;;5015967;28;20363;-47
2021/10/12 05:41:57;;;;;;;5.63;2.38;;;7.60;99.90;;;;;;5015947;28;20026;-51
2021/10/12 05:44:23;;;;;;;6.40;2.40;;;7.70;99.90;;;;;;5014498;28;20018;-51
2021/10/12 05:46:49;;;;;;;5.32;2.78;;;7.70;99.90;;;;;;5015899;28;20026;-49
2021/10/12 05:49:15;;;;;;;5.75;2.50;;;7.70;99.90;;;;;;5015752;28;20384;-51
2021/10/12 05:51:46;;;;;;;4.53;2.20;;;7.80;99.90;;;;;;5015748;28;20476;-50
2021/10/12 05:54:16;;;;;;;6.53;2.22;;;7.70;99.90;;;;;;5014599;28;20108;-52
2021/10/12 05:56:47;;;;;;;4.10;2.72;;;7.80;99.90;;;;;;5015593;28;20141;-55
2021/10/12 05:59:13;;;;;;;3.88;2.15;;;7.80;99.90;;;;;;5014245;28;20029;-51
2021/10/12 06:01:40;;;;;;;6.82;2.90;;;7.80;99.90;;;;;;5015513;28;20026;-47
2021/10/12 06:04:07;;;;;;;5.45;2.55;;;7.80;99.90;;;;;;5015434;28;20025;-51
2021/10/12 06:06:32;;;;;;;4.85;2.80;;;7.90;99.90;;;;;;5015252;28;20034;-49
2021/10/12 06:08:58;;;;;;;5.22;2.53;;;7.90;99.90;;;;;;5015425;28;20540;-48
2021/10/12 06:11:23;;;;;;;3.70;2.58;;;8.00;99.90;;;;;;5015274;28;20040;-51
2021/10/12 06:13:51;;;;;;;3.42;2.47;;;8.00;99.90;;;;;;5014023;28;20042;-48
2021/10/12 06:16:16;;;;;;;4.80;2.75;;;8.10;99.90;;;;;;5015241;28;20084;-51
2021/10/12 06:18:42;;;;;;;5.28;2.97;;;8.20;99.90;;;;;;5015216;28;20524;-50
2021/10/12 06:21:10;;;;;;;7.05;2.80;;;8.20;99.90;;;;;;5015120;28;20025;-50
2021/10/12 06:23:35;;;;;;;4.95;2.90;;;8.30;99.90;;;;;;5015123;28;20026;-52
2021/10/12 06:26:01;;;;;;;4.68;2.75;;;8.30;99.90;;;;;;5015153;28;20433;-47
2021/10/12 06:28:28;;;;;;;6.68;2.47;;;8.40;99.90;;;;;;5013756;28;20030;-51
2021/10/12 06:30:54;;;;;;;5.05;1.95;;;8.40;99.90;;;;;;5015018;28;20033;-52
2021/10/12 06:33:19;;;;;;;5.22;2.08;;;8.40;99.90;;;;;;5015211;28;20029;-48
2021/10/12 06:35:45;;;;;;;4.75;2.30;;;8.50;99.90;;;;;;5014681;28;20426;-50
2021/10/12 06:38:11;;;;;;;3.03;1.90;;;8.50;99.90;;;;;;5014809;28;20416;-52
2021/10/12 06:40:37;;;;;;;6.05;2.50;;;8.50;99.90;;;;;;5014958;28;20053;-52
2021/10/12 06:43:03;;;;;;;4.80;2.35;;;8.60;99.90;;;;;;5013934;28;20026;-51
2021/10/12 06:45:28;;;;;;;3.15;1.25;;;8.60;99.90;;;;;;5014410;28;20509;-48
2021/10/12 06:47:54;;;;;;;3.72;1.60;;;8.70;99.90;;;;;;5014746;28;20131;-53
2021/10/12 06:50:21;;;;;;;3.45;1.80;;;8.70;99.90;;;;;;5014549;28;20376;-53
2021/10/12 06:52:46;;;;;;;4.60;2.00;;;8.70;99.90;;;;;;5014619;28;20488;-52
2021/10/12 06:55:14;;;;;;;4.45;2.20;;;8.80;99.90;;;;;;5014629;28;20026;-50
2021/10/12 06:57:40;;;;;;;3.45;1.85;;;8.90;99.90;;;;;;5014472;28;20018;-49
2021/10/12 07:00:08;;;;;;;6.15;2.65;;;8.90;99.90;;;;;;5013140;28;20145;-49
2021/10/12 07:02:33;;;;;;;3.50;1.60;;;9.00;99.90;;;;;;5014398;28;20101;-51
2021/10/12 07:04:59;;;;;;;3.00;1.67;;;9.00;99.90;;;;;;5014020;28;20428;-51
2021/10/12 07:07:25;;;;;;;4.13;2.08;;;9.10;99.90;;;;;;5014182;28;20485;-52
2021/10/12 07:09:50;;;;;;;4.40;2.42;;;9.20;99.90;;;;;;5014226;28;20044;-50
2021/10/12 07:12:16;;;;;;;3.17;1.77;;;9.30;99.90;;;;;;5014231;28;20409;-53
2021/10/12 07:14:41;;;;;;;4.18;2.28;;;9.30;99.90;;;;;;5012862;28;20045;-49
2021/10/12 07:17:07;;;;;;;5.10;2.20;;;9.40;99.90;;;;;;5014153;28;20133;-52
2021/10/12 07:19:32;;;;;;;3.17;1.92;;;9.50;99.90;;;;;;5013899;28;20037;-53
2021/10/12 07:21:58;;;;;;;5.30;2.00;;;9.50;99.90;;;;;;5014087;28;20350;-52
2021/10/12 07:24:24;;;;;;;4.00;1.85;;;9.60;99.90;;;;;;5013980;28;20030;-49
2021/10/12 07:26:50;;;;;;;5.85;2.30;;;9.60;99.90;;;;;;5014018;28;20025;-51
2021/10/12 07:29:16;;;;;;;3.38;2.20;;;9.60;99.90;;;;;;5012718;28;20036;-48
2021/10/12 07:31:42;;;;;;;2.65;1.80;;;9.70;99.90;;;;;;5013843;28;20104;-49
2021/10/12 07:34:07;;;;;;;2.92;1.60;;;9.90;99.90;;;;;;5013617;28;20061;-47
2021/10/12 07:36:33;;;;;;;2.70;1.52;;;10.00;99.90;;;;;;5013800;28;20026;-50
2021/10/12 07:38:59;;;;;;;3.17;2.13;;;10.00;99.90;;;;;;5013701;28;20096;-50
2021/10/12 07:41:24;;;;;;;2.53;1.88;;;10.00;99.90;;;;;;5013716;28;20036;-54
2021/10/12 07:43:50;;;;;;;3.35;2.10;;;10.10;99.90;;;;;;5012367;28;20117;-50
2021/10/12 07:46:16;;;;;;;3.53;2.30;;;10.20;99.90;;;;;;5013626;28;20064;-48
2021/10/12 07:48:41;;;;;;;5.78;2.10;;;10.20;99.90;;;;;;5013505;28;20033;-49
2021/10/12 07:51:07;;;;;;;1.85;1.50;;;10.30;99.90;;;;;;4996002;28;20032;-54
2021/10/12 07:53:36;;;;;;;2.85;2.05;;;10.30;99.90;;;;;;5013536;28;20026;-54
2021/10/12 07:56:04;;;;;;;2.90;1.50;;;10.50;99.90;;;;;;5013507;28;20022;-49
2021/10/12 07:58:29;;;;;;;2.72;1.58;;;10.50;99.90;;;;;;5012039;28;20061;-49
2021/10/12 08:00:55;;;;;;;1.70;1.30;;;10.60;99.90;;;;;;5013427;28;20034;-48
2021/10/12 08:03:21;;;;;;;2.08;1.30;;;10.70;99.90;;;;;;5013296;28;20097;-52
2021/10/12 08:05:46;;;;;;;2.30;1.08;;;10.70;99.90;;;;;;5013339;28;20030;-50
2021/10/12 08:08:12;;;;;;;3.50;1.50;;;10.70;99.90;;;;;;5013371;28;20474;-53
2021/10/12 08:10:38;;;;;;;3.58;1.60;;;10.80;99.90;;;;;;5013291;28;20120;-53
2021/10/12 08:13:06;;;;;;;3.05;1.15;;;10.80;99.90;;;;;;5012016;28;20076;-55
2021/10/12 08:15:32;;;;;;;2.75;1.10;;;10.70;99.90;;;;;;5012615;28;20056;-52
2021/10/12 08:17:58;;;;;;;1.63;0.98;;;10.60;99.90;;;;;;5013089;28;20084;-53
2021/10/12 08:20:24;;;;;;;1.75;0.93;;;10.50;99.90;;;;;;5013141;28;20040;-48
2021/10/12 08:22:50;;;;;;;1.45;0.90;;;10.50;99.90;;;;;;5013175;28;20377;-53
2021/10/12 08:25:16;;;;;;;3.63;1.38;;;10.40;99.90;;;;;;5013152;28;20037;-50
2021/10/12 08:27:41;;;;;;;4.05;1.15;;;10.40;99.90;;;;;;5013086;28;20057;-48
2021/10/12 08:30:09;;;;;;;1.67;1.10;;;10.40;99.90;;;;;;5011840;28;20438;-48
2021/10/12 08:32:35;;;;;;;2.03;1.27;;;10.50;99.90;;;;;;5012990;28;20034;-49
2021/10/12 08:35:01;;;;;;;1.95;1.05;;;10.60;99.90;;;;;;5012898;28;20564;-51
2021/10/12 08:37:26;;;;;;;2.30;1.00;;;10.90;99.90;;;;;;5013081;28;20385;-52
2021/10/12 08:39:52;;;;;;;3.30;0.90;;;11.20;99.90;;;;;;5012891;28;20067;-49
2021/10/12 08:42:26;;;;;;;2.85;1.00;;;11.30;99.90;;;;;;5013045;28;20026;-52
2021/10/12 08:44:57;;;;;;;1.25;0.85;;;11.30;99.90;;;;;;5011603;28;20108;-51
2021/10/12 08:47:24;;;;;;;1.58;0.85;;;11.20;99.90;;;;;;5012921;28;20050;-51
2021/10/12 08:49:51;;;;;;;2.33;0.90;;;11.20;99.90;;;;;;5012830;28;20042;-51
2021/10/12 08:52:17;;;;;;;2.03;1.00;;;11.10;99.90;;;;;;5012969;28;20032;-53
2021/10/12 08:54:42;;;;;;;2.65;1.10;;;11.10;99.90;;;;;;5012859;28;20105;-51
2021/10/12 08:57:09;;;;;;;2.28;0.85;;;11.20;99.90;;;;;;5012797;28;20363;-51
2021/10/12 08:59:35;;;;;;;2.40;1.05;;;11.30;99.90;;;;;;5011323;28;20424;-52
2021/10/12 09:02:03;;;;;;;1.42;0.85;;;11.30;99.90;;;;;;5012767;28;20034;-53
2021/10/12 09:04:39;;;;;;;1.77;1.27;;;11.30;99.90;;;;;;5012747;28;20022;-53
2021/10/12 09:07:13;;;;;;;2.97;1.02;;;11.20;99.90;;;;;;5012782;28;20018;-51
2021/10/12 09:09:39;;;;;;;3.20;1.10;;;11.20;99.90;;;;;;5012712;28;20456;-53
2021/10/12 09:12:05;;;;;;;0.80;0.80;;;11.30;99.90;;;;;;5012661;28;20057;-52
2021/10/12 09:14:30;;;;;;;3.33;1.17;;;11.40;99.90;;;;;;5011414;28;20022;-55
2021/10/12 09:17:05;;;;;;;5.05;1.20;;;11.50;99.90;;;;;;5012647;28;20022;-51
2021/10/12 09:19:35;;;;;;;3.05;1.02;;;11.70;99.90;;;;;;5012607;28;20025;-50
2021/10/12 09:22:05;;;;;;;2.63;1.00;;;12.00;99.90;;;;;;5012652;28;20025;-49
2021/10/12 09:24:39;;;;;;;2.88;0.85;;;12.40;99.90;;;;;;5012765;28;20343;-53
2021/10/12 09:27:10;;;;;;;3.35;1.42;;;12.80;99.90;;;;;;5013487;28;20036;-53
2021/10/12 09:32:03;;;;;;;1.92;0.95;;;13.70;99.90;;;;;;5016120;28;20122;-54
2021/10/12 09:34:28;;;;;;;5.18;1.02;;;14.00;99.90;;;;;;5015971;28;20124;-52
2021/10/12 09:36:54;;;;;;;1.58;0.75;;;14.10;99.90;;;;;;5016007;28;20065;-47
2021/10/12 09:39:31;;;;;;;2.83;0.80;;;14.10;99.90;;;;;;5015840;28;20026;-45
2021/10/12 09:42:05;;;;;;;1.75;0.73;;;14.10;99.90;;;;;;5015897;28;20026;-51
2021/10/12 09:44:31;;;;;;;1.98;0.80;;;14.30;99.90;;;;;;5014669;28;20033;-51
2021/10/12 09:47:14;;;;;;;1.65;0.77;;;14.50;99.90;;;;;;5015852;28;20033;-47
2021/10/12 09:49:40;;;;;;;2.13;0.80;;;14.90;99.90;;;;;;5015776;28;20116;-49
2021/10/12 09:52:12;;;;;;;1.95;0.80;;;15.20;99.90;;;;;;5015743;28;20022;-48
2021/10/12 09:54:47;;;;;;;2.47;1.00;;;15.10;99.90;;;;;;5015740;28;20022;-46
2021/10/12 09:57:13;;;;;;;3.05;1.15;;;14.80;99.90;;;;;;5015719;28;20030;-51
2021/10/12 09:59:39;;;;;;;3.63;0.70;;;14.10;99.90;;;;;;5014262;28;20022;-48
2021/10/12 10:02:05;;;;;;;3.30;0.80;;;13.50;99.90;;;;;;5015566;28;20076;-49
2021/10/12 10:04:30;;;;;;;1.25;0.70;;;13.00;99.90;;;;;;5015489;28;20026;-53
2021/10/12 10:07:04;;;;;;;3.50;0.73;;;12.60;99.90;;;;;;5015457;28;20036;-53
2021/10/12 10:09:31;;;;;;;1.17;0.60;;;12.40;99.90;;;;;;5015515;28;20041;-55
2021/10/12 10:11:58;;;;;;;4.88;0.95;;;12.20;99.90;;;;;;5015395;28;20185;-53
2021/10/12 10:14:24;;;;;;;0.70;0.60;;;12.00;99.90;;;;;;5014115;28;20358;-49
2021/10/12 10:16:53;;;;;;;1.23;0.60;;;11.90;99.90;;;;;;5015125;28;20033;-53
2021/10/12 10:19:24;;;;;;;1.63;0.60;;;11.80;99.90;;;;;;5015154;28;20033;-51
2021/10/12 10:21:50;;;;;;;1.08;0.68;;;11.70;99.90;;;;;;5015210;28;20022;-52
2021/10/12 10:24:36;;;;;;;1.48;0.63;;;11.80;99.90;;;;;;5015253;28;20026;-49
2021/10/12 10:27:01;;;;;;;1.92;1.00;;;11.90;99.90;;;;;;5015167;28;20025;-52
2021/10/12 10:29:35;;;;;;;1.73;0.43;;;12.10;99.90;;;;;;5013740;28;20077;-51
2021/10/12 10:32:12;;;;;;;0.47;0.45;;;12.20;99.90;;;;;;5014981;28;20022;-55
2021/10/12 10:34:42;;;;;;;2.03;0.50;;;12.40;99.90;;;;;;5014736;28;20089;-53
2021/10/12 10:37:16;;;;;;;2.17;0.73;;;12.60;99.90;;;;;;5014856;28;20034;-52
2021/10/12 10:39:42;;;;;;;1.65;0.60;;;12.60;99.90;;;;;;5014047;28;20026;-54
2021/10/12 10:42:07;;;;;;;1.52;0.50;;;12.50;99.90;;;;;;5014709;28;20516;-53
2021/10/12 10:44:56;;;;;;;1.70;0.80;;;12.30;99.90;;;;;;5013525;28;20030;-56
2021/10/12 10:47:40;;;;;;;2.58;0.70;;;12.10;99.90;;;;;;5014772;28;20529;-49
2021/10/12 10:50:13;;;;;;;2.08;0.70;;;11.90;99.90;;;;;;4997150;28;20033;-55
2021/10/12 10:52:47;;;;;;;2.05;0.90;;;11.90;99.90;;;;;;5014666;28;20022;-51
2021/10/12 10:55:32;;;;;;;0.70;0.43;;;11.80;99.90;;;;;;5014654;28;20096;-51
2021/10/12 10:58:20;;;;;;;1.17;0.68;;;11.80;99.90;;;;;;5013334;28;20380;-49
2021/10/12 11:00:55;;;;;;;1.25;0.50;;;11.80;99.90;;;;;;5014306;28;20026;-52
2021/10/12 11:03:36;;;;;;;6.18;0.60;;;11.80;99.90;;;;;;5014870;28;20342;-51
2021/10/12 11:06:14;;;;;;;0.82;0.60;;;11.70;99.90;;;;;;5014403;28;20022;-51
2021/10/12 11:08:55;;;;;;;1.70;0.93;;;11.70;99.90;;;;;;5014393;28;20033;-50
2021/10/12 11:11:20;;;;;;;0.90;0.55;;;11.70;99.90;;;;;;5014320;28;20033;-53
2021/10/12 11:13:46;;;;;;;2.00;0.90;;;11.60;99.90;;;;;;5012964;28;20030;-51
2021/10/12 11:16:13;;;;;;;2.47;0.43;;;11.60;99.90;;;;;;5014199;28;20034;-51
2021/10/12 11:18:41;;;;;;;6.00;0.90;;;11.60;99.90;;;;;;5014127;28;20124;-47
2021/10/12 11:21:10;;;;;;;3.17;0.60;;;11.60;99.90;;;;;;5014062;28;20029;-51
2021/10/12 11:23:40;;;;;;;0.82;0.60;;;11.50;99.90;;;;;;5013954;28;20092;-50
2021/10/12 11:26:06;;;;;;;1.73;0.50;;;11.50;99.90;;;;;;5014002;28;20033;-48
2021/10/12 11:28:34;;;;;;;1.13;0.52;;;11.50;99.90;;;;;;5012888;28;20029;-54
2021/10/12 11:31:02;;;;;;;2.20;0.60;;;11.50;99.90;;;;;;5013926;28;20030;-49
2021/10/12 11:33:45;;;;;;;1.95;0.57;;;11.40;99.90;;;;;;5013864;28;20057;-53
2021/10/12 11:36:17;;;;;;;0.93;0.55;;;11.50;99.90;;;;;;5013617;28;20129;-54
2021/10/12 11:38:45;;;;;;;1.33;0.60;;;11.60;99.90;;;;;;5013757;28;20034;-53
2021/10/12 11:41:36;;;;;;;1.77;0.80;;;11.60;99.90;;;;;;5013763;28;20072;-54
2021/10/12 11:44:20;;;;;;;1.60;0.40;;;11.70;99.90;;;;;;5012396;28;20022;-49
2021/10/12 11:46:47;;;;;;;1.30;0.70;;;11.70;99.90;;;;;;5013553;28;20022;-51
2021/10/12 11:49:15;;;;;;;0.82;0.50;;;11.80;99.90;;;;;;5013654;28;20193;-53
2021/10/12 11:51:43;;;;;;;0.73;0.60;;;12.00;99.90;;;;;;5012736;28;20022;-50
2021/10/12 11:54:10;;;;;;;1.77;1.33;;;12.00;99.90;;;;;;5013534;28;20030;-53
2021/10/12 11:56:36;;;;;;;1.38;0.63;;;12.20;99.90;;;;;;5013524;28;20062;-56
2021/10/12 11:59:04;;;;;;;2.08;0.70;;;12.30;99.90;;;;;;5012063;28;20021;-54
2021/10/12 12:01:36;;;;;;;2.50;0.63;;;12.50;99.90;;;;;;4995804;28;20022;-51
2021/10/12 12:04:03;;;;;;;2.25;0.80;;;12.60;99.90;;;;;;4995820;28;20029;-50
2021/10/12 12:06:32;;;;;;;1.17;0.40;;;12.50;99.90;;;;;;5013390;28;20101;-50
2021/10/12 12:09:02;;;;;;;0.80;0.60;;;12.40;99.90;;;;;;5013260;28;20033;-51
2021/10/12 12:11:30;;;;;;;2.47;0.68;;;12.30;99.90;;;;;;5013368;28;20109;-52
2021/10/12 12:13:58;;;;;;;2.00;0.57;;;12.20;99.90;;;;;;5012113;28;20022;-52
2021/10/12 12:16:27;;;;;;;1.15;0.68;;;12.20;99.90;;;;;;5013355;28;20033;-51
2021/10/12 12:18:52;;;;;;;0.52;0.52;;;12.10;99.90;;;;;;5013418;28;20368;-50
2021/10/12 12:21:33;;;;;;;3.10;0.50;;;12.00;98.10;;;;;;5013223;28;20101;-51
2021/10/12 12:24:01;;;;;;;0.90;0.50;;;12.00;95.80;;;;;;5013151;28;20050;-53
2021/10/12 12:26:30;;;;;;;1.70;0.52;;;11.80;99.90;;;;;;5013115;28;20060;-51
2021/10/12 12:29:15;;;;;;;0.65;0.55;;;11.70;97.20;;;;;;4994262;28;20030;-49
2021/10/12 12:31:46;;;;;;;0.80;0.40;;;11.70;99.50;;;;;;5013150;28;20388;-53
2021/10/12 12:34:22;;;;;;;1.80;0.55;;;11.70;99.90;;;;;;5012891;28;20022;-51
2021/10/12 12:36:48;;;;;;;2.33;0.70;;;11.70;96.70;;;;;;5012961;28;20073;-54
2021/10/12 12:39:13;;;;;;;1.73;0.40;;;11.80;96.30;;;;;;5012947;28;20161;-54
2021/10/12 12:41:42;;;;;;;0.65;0.40;;;11.90;96.10;;;;;;5013062;28;20389;-56
2021/10/12 12:44:08;;;;;;;0.65;0.63;;;12.00;96.20;;;;;;5011694;28;20449;-50
2021/10/12 12:46:34;;;;;;;3.13;0.70;;;12.00;94.50;;;;;;5012967;28;20274;-52
2021/10/12 12:49:10;;;;;;;4.03;0.77;;;12.00;93.30;;;;;;5012899;28;20038;-51
2021/10/12 12:51:47;;;;;;;1.80;0.47;;;12.00;93.80;;;;;;5012986;28;20435;-50
2021/10/12 12:54:41;;;;;;;0.85;0.65;;;12.00;91.80;;;;;;5012861;28;20385;-50
2021/10/12 12:57:18;;;;;;;2.28;0.70;;;12.00;89.10;;;;;;5012812;28;20052;-51